Flight Track Log - Related Links

Times and Time Zones

All times are in EDT time to prevent confusion due to time zone crossing. See the N960DL flight status page for this flight to view local times or setup timezone preferences in your user account.


Time Position Orientation Groundspeed Altitude Reporting Facility
EDT Latitude Longitude Course Direction KTS MPH feet Rate Location/Type
Thu 03:39:27 PM 33.6333 -84.4000 53° Northeast 141 162 2,400  Level Atlanta TRACON
Thu 03:40:27 PM 33.6333 -84.3333 90° East 220 253 4,000 2,350 Climbing Atlanta TRACON
Thu 03:41:27 PM 33.6333 -84.2500 90° East 249 287 7,100 2,257 Climbing Atlanta TRACON
Thu 03:42:00 PM 33.7881 -83.9146 54° Northeast  Level FlightAware Approximate
Thu 03:43:00 PM 33.8541 -83.8043 54° Northeast  Level FlightAware Approximate
Thu 03:43:49 PM 33.6647 -84.0614 79° East 288 331 11,600  Level Atlanta Center
Thu 03:44:00 PM 33.9268 -83.7004 53° Northeast  Level FlightAware Approximate
Thu 03:44:49 PM 33.7358 -83.9714 46° Northeast 326 375 13,600  Level Atlanta Center
Thu 03:45:49 PM 33.8128 -83.8664 49° Northeast 358 412 16,300 2,600 Climbing Atlanta Center
Thu 03:46:49 PM 33.8900 -83.7686 46° Northeast 390 449 18,800 2,050 Climbing Atlanta Center
Thu 03:47:49 PM 33.9647 -83.6631 50° Northeast 403 464 20,400 1,550 Climbing Atlanta Center
Thu 03:48:49 PM 34.0417 -83.5425 52° Northeast 427 491 21,900 1,650 Climbing Atlanta Center
Thu 03:49:49 PM 34.1183 -83.4189 53° Northeast 448 516 23,700 1,850 Climbing Atlanta Center
Thu 03:50:49 PM 34.1969 -83.2928 53° Northeast 465 535 25,600 2,000 Climbing Atlanta Center
Thu 03:51:49 PM 34.2775 -83.1664 52° Northeast 471 542 27,700 1,800 Climbing Atlanta Center
Thu 03:52:49 PM 34.3558 -83.0397 53° Northeast 471 542 29,200 1,500 Climbing Atlanta Center
Thu 03:53:49 PM 34.4361 -82.9156 52° Northeast 471 542 30,700 900 Climbing Atlanta Center
Thu 03:54:49 PM 34.5119 -82.7858 55° Northeast 463 533 31,000 150 Climbing Atlanta Center
Thu 03:55:49 PM 34.5881 -82.6611 53° Northeast 457 526 31,000  Level Atlanta Center
Thu 03:56:49 PM 34.6658 -82.5361 53° Northeast 457 526 31,000  Level Atlanta Center
Thu 03:57:49 PM 34.7414 -82.4083 54° Northeast 457 526 31,000 250 Level Atlanta Center
Thu 03:58:49 PM 34.8189 -82.2828 53° Northeast 457 526 31,500 800 Climbing Atlanta Center
Thu 03:59:49 PM 34.8964 -82.1572 53° Northeast 457 526 32,600 750 Climbing Atlanta Center
Thu 04:00:49 PM 34.9736 -82.0336 53° Northeast 457 526 33,000 200 Climbing Atlanta Center
Thu 04:01:49 PM 35.0486 -81.9025 55° Northeast 457 526 33,000  Level Atlanta Center
Thu 04:02:49 PM 35.1214 -81.7686 56° Northeast 465 535 33,000  Level Atlanta Center
Thu 04:03:49 PM 35.1817 -81.6500 58° Northeast 459 528 33,000  Level Atlanta Center
Thu 04:04:49 PM 35.2500 -81.5158 58° Northeast 459 528 33,000  Level Atlanta Center
Thu 04:05:49 PM 35.3203 -81.3814 57° Northeast 464 534 33,000  Level Atlanta Center
Thu 04:06:49 PM 35.3903 -81.2467 57° Northeast 459 528 33,000  Level Atlanta Center
Thu 04:07:49 PM 35.4600 -81.1092 58° Northeast 468 539 33,000  Level Atlanta Center
Thu 04:08:49 PM 35.5319 -80.9764 56° Northeast 468 539 33,000  Level Atlanta Center
Thu 04:09:49 PM 35.6036 -80.8408 57° Northeast 468 539 33,000  Level Atlanta Center
Thu 04:10:49 PM 35.6750 -80.7053 57° Northeast 474 545 33,000  Level Atlanta Center
Thu 04:11:49 PM 35.7444 -80.5692 58° Northeast 467 537 33,000  Level Atlanta Center
Thu 04:12:49 PM 35.8133 -80.4331 58° Northeast 473 544 33,000  Level Atlanta Center
Thu 04:13:49 PM 35.8803 -80.3022 58° Northeast 466 536 33,000  Level Atlanta Center
Thu 04:16:00 PM 36.0328 -80.0072 57° Northeast 440 506 33,000  Level Washington Center
Thu 04:16:58 PM 36.1064 -79.8753 55° Northeast 440 506 33,000  Level Washington Center
Thu 04:17:59 PM 36.1800 -79.7428 55° Northeast 451 519 33,000  Level Washington Center
Thu 04:19:00 PM 36.2447 -79.6225 56° Northeast 457 526 33,000  Level Washington Center
Thu 04:19:58 PM 36.3244 -79.4822 55° Northeast 451 519 33,000  Level Washington Center
Thu 04:20:58 PM 36.3953 -79.3542 55° Northeast 451 519 33,000  Level Washington Center
Thu 04:21:59 PM 36.4661 -79.2258 56° Northeast 451 519 33,000 -1,131 Level Washington Center
Thu 04:23:00 PM 36.5408 -79.1003 53° Northeast 451 519 30,700 -2,420 Descending Washington Center
Thu 04:23:58 PM 36.6111 -78.9739 55° Northeast 444 511 28,200 -2,218 Descending Washington Center
Thu 04:24:59 PM 36.6728 -78.8575 57° Northeast 444 511 26,300 -1,587 Descending Washington Center
Thu 04:25:59 PM 36.7386 -78.7383 55° Northeast 428 493 25,000 -645 Descending Washington Center
Thu 04:27:00 PM 36.8108 -78.6092 55° Northeast 422 486 25,000  Level Washington Center
Thu 04:28:00 PM 36.8783 -78.4922 54° Northeast 415 478 25,000  Level Washington Center
Thu 04:28:58 PM 36.9417 -78.3778 55° Northeast 415 478 25,000  Level Washington Center
Thu 04:29:59 PM 37.0111 -78.2553 55° Northeast 415 478 25,000  Level Washington Center
Thu 04:31:00 PM 37.0742 -78.1353 57° Northeast 415 478 25,000  Level Washington Center
Thu 04:32:01 PM 37.1369 -78.0200 56° Northeast 415 478 25,000  Level Washington Center
Thu 04:32:58 PM 37.2000 -77.9019 56° Northeast 410 472 25,000  Level Washington Center
Thu 04:33:59 PM 37.2628 -77.7814 57° Northeast 410 472 25,000  Level Washington Center
Thu 04:35:00 PM 37.3272 -77.6631 56° Northeast 410 472 25,000 -197 Level Washington Center
Thu 04:36:01 PM 37.3897 -77.5444 56° Northeast 410 472 24,600 -1,160 Descending Washington Center
Thu 04:36:59 PM 37.4522 -77.4283 56° Northeast 405 466 22,700 -2,250 Descending Washington Center
Thu 04:38:01 PM 37.5206 -77.3253 50° Northeast 400 460 20,100 -6,403 Descending Washington Center
Thu 04:38:58 PM 37.6294 -77.2936 13° North 377 434 10,000 -2,359 Descending Washington Center
Thu 04:39:58 PM 37.7361 -77.2722 North 371 427 15,500  Climbing Washington Center
Thu 04:41:00 PM 37.8488 -77.2378 North  Level FlightAware Approximate
Thu 04:45:00 PM 38.1731 -77.1844 North 284 327 10,000  Level Washington Center
Thu 04:46:00 PM 38.2569 -77.1597 North 278 320 10,000 -298 Level Washington Center
Thu 04:47:00 PM 38.3907 -77.1377 15° North  Level Estimated
Thu 04:47:01 PM 38.3217 -77.1478 North 278 320 9,400  Level Washington Center
Thu 04:47:58 PM 38.3992 -77.1256 13° North 278 320 7,500 -1,744 Descending Washington Center
Thu 04:48:00 PM 38.6178 -77.0744 21° North  Level FlightAware Approximate
Thu 04:48:58 PM 38.4744 -77.1058 12° North 278 320 6,000  Level Washington Center
Thu 04:49:00 PM 38.7284 -77.0596 11° North  Level FlightAware Approximate
Thu 04:50:00 PM 38.8390 -77.0355 North  Level FlightAware Approximate
Thu 04:54:00 PM 38.8500 -77.0333 North  Level FlightAware Approximate

Login

Don't have an account? Register now (free) for customized features, flight alerts, and more!